createdAt,value
2024-04-12T00:01:06.929Z,13.33
2024-04-12T00:05:08.796Z,13.27
2024-04-12T00:09:11.093Z,13.18
2024-04-12T00:13:12.824Z,13.10
2024-04-12T00:17:18.278Z,13.02
2024-04-12T00:21:24.475Z,12.94
2024-04-12T00:25:26.204Z,12.85
2024-04-12T00:29:32.619Z,12.78
2024-04-12T00:33:36.133Z,12.71
2024-04-12T00:37:41.272Z,12.65
2024-04-12T00:41:44.342Z,12.59
2024-04-12T00:45:47.465Z,12.53
2024-04-12T00:49:54.621Z,12.47
2024-04-12T00:54:00.263Z,12.42
2024-04-12T00:58:02.485Z,12.37
2024-04-12T01:02:10.069Z,12.33
2024-04-12T01:06:12.061Z,12.30
2024-04-12T01:10:13.974Z,12.29
2024-04-12T01:14:15.962Z,12.27
2024-04-12T01:18:18.286Z,12.22
2024-04-12T01:22:20.261Z,12.16
2024-04-12T01:26:25.055Z,12.11
2024-04-12T01:30:27.108Z,12.05
2024-04-12T01:34:31.375Z,12.00
2024-04-12T01:38:38.584Z,11.95
2024-04-12T01:42:44.571Z,11.89
2024-04-12T01:46:49.668Z,11.82
2024-04-12T01:50:54.655Z,11.77
2024-04-12T01:55:08.812Z,11.70
2024-04-12T01:59:16.209Z,11.63
2024-04-12T02:03:20.114Z,11.55
2024-04-12T02:07:28.630Z,11.48
2024-04-12T02:11:30.388Z,11.40
2024-04-12T02:15:32.115Z,11.33
2024-04-12T02:19:37.334Z,11.24
2024-04-12T02:23:39.502Z,11.18
2024-04-12T02:27:41.711Z,11.10
2024-04-12T02:31:45.075Z,11.07
2024-04-12T02:35:48.315Z,11.03
2024-04-12T02:39:50.481Z,11.00
2024-04-12T02:43:56.728Z,10.96
2024-04-12T02:47:58.842Z,10.90
2024-04-12T02:52:02.472Z,10.83
2024-04-12T02:56:13.058Z,10.77
2024-04-12T03:00:23.948Z,10.70
2024-04-12T03:04:25.829Z,10.64
2024-04-12T03:08:28.137Z,10.55
2024-04-12T03:12:29.921Z,10.48
2024-04-12T03:16:32.887Z,10.43
2024-04-12T03:20:36.871Z,10.39
2024-04-12T03:24:38.767Z,10.34
2024-04-12T03:28:41.923Z,10.29
2024-04-12T03:32:47.531Z,10.27
2024-04-12T03:36:50.335Z,10.24
2024-04-12T03:41:02.029Z,10.28
2024-04-12T03:45:14.619Z,10.26
2024-04-12T03:49:17.152Z,10.31
2024-04-12T03:53:19.085Z,10.30
2024-04-12T03:57:28.599Z,10.30
2024-04-12T04:01:32.687Z,10.29
2024-04-12T04:05:34.688Z,10.29
2024-04-12T04:09:36.986Z,10.29
2024-04-12T04:13:43.161Z,10.30
2024-04-12T04:17:51.238Z,10.30
2024-04-12T04:21:53.114Z,10.27
2024-04-12T04:25:56.698Z,10.28
2024-04-12T04:29:58.789Z,10.25
2024-04-12T04:34:00.652Z,10.25
2024-04-12T04:38:02.483Z,10.26
2024-04-12T04:42:06.445Z,10.28
2024-04-12T04:46:28.491Z,10.30
2024-04-12T04:50:30.517Z,10.35
2024-04-12T04:54:32.306Z,10.37
2024-04-12T04:58:35.757Z,10.39
2024-04-12T05:02:37.832Z,10.43
2024-04-12T05:06:39.742Z,10.50
2024-04-12T05:10:41.720Z,10.58
2024-04-12T05:14:47.860Z,10.70
2024-04-12T05:18:50.901Z,10.83
2024-04-12T05:22:52.847Z,10.98
2024-04-12T05:27:03.146Z,11.13
2024-04-12T05:31:13.096Z,11.26
2024-04-12T05:35:16.947Z,11.40
2024-04-12T05:39:21.146Z,11.54
2024-04-12T05:43:23.922Z,11.67
2024-04-12T05:47:26.329Z,11.80
2024-04-12T05:51:28.360Z,11.96
2024-04-12T05:55:31.551Z,12.10
2024-04-12T05:59:33.872Z,12.26
2024-04-12T06:03:54.079Z,12.42
2024-04-12T06:07:59.812Z,12.58
2024-04-12T06:12:04.242Z,12.73
2024-04-12T06:16:06.849Z,12.87
2024-04-12T06:20:09.773Z,13.00
2024-04-12T06:24:11.790Z,13.12
2024-04-12T06:28:14.749Z,13.27
2024-04-12T06:32:17.974Z,13.39
2024-04-12T06:36:20.162Z,13.53
2024-04-12T06:40:29.574Z,13.68
2024-04-12T06:44:34.428Z,13.83
2024-04-12T06:48:38.052Z,13.95
2024-04-12T06:52:42.146Z,14.11
2024-04-12T06:56:44.075Z,14.28
2024-04-12T07:00:47.874Z,14.46
2024-04-12T07:04:49.891Z,14.65
2024-04-12T07:08:51.967Z,14.88
2024-04-12T07:12:57.080Z,15.15
2024-04-12T07:17:01.023Z,15.48
2024-04-12T07:21:18.282Z,15.87
2024-04-12T07:25:25.036Z,16.34
2024-04-12T07:29:26.756Z,16.87
2024-04-12T07:33:29.144Z,17.48
2024-04-12T07:37:33.719Z,18.11
2024-04-12T07:41:48.000Z,18.75
2024-04-12T07:45:49.768Z,19.30
2024-04-12T07:49:51.559Z,19.78
2024-04-12T07:53:54.855Z,20.22
2024-04-12T07:57:56.897Z,20.66
2024-04-12T08:01:59.825Z,21.04
2024-04-12T08:06:04.315Z,21.37
2024-04-12T08:10:27.473Z,21.67
2024-04-12T08:14:31.379Z,21.96
2024-04-12T08:18:37.871Z,22.22
2024-04-12T08:22:45.198Z,22.47
2024-04-12T08:26:49.522Z,22.75
2024-04-12T08:30:55.993Z,23.00
2024-04-12T08:35:08.666Z,23.27
2024-04-12T08:39:14.028Z,23.54
2024-04-12T08:43:21.038Z,23.78
2024-04-12T08:47:26.942Z,24.01
2024-04-12T08:51:35.854Z,24.13
2024-04-12T08:55:43.920Z,24.27
2024-04-12T08:59:48.379Z,24.42
2024-04-12T09:03:53.322Z,24.57
2024-04-12T09:08:01.448Z,24.77
2024-04-12T09:12:13.959Z,24.99
2024-04-12T09:16:20.819Z,25.21
2024-04-12T09:20:31.764Z,25.37
2024-04-12T09:24:33.932Z,25.45
2024-04-12T09:28:39.163Z,25.56
2024-04-12T09:32:54.671Z,25.70
2024-04-12T09:36:58.097Z,25.85
2024-04-12T09:41:14.733Z,25.97
2024-04-12T09:45:23.986Z,26.08
2024-04-12T09:49:46.290Z,26.19
2024-04-12T09:54:07.187Z,26.31
2024-04-12T09:58:31.521Z,26.48
2024-04-12T10:02:51.839Z,26.66
2024-04-12T10:07:35.013Z,26.87
2024-04-12T10:11:55.707Z,27.09
2024-04-12T10:16:22.514Z,27.26
2024-04-12T10:20:45.170Z,27.41
2024-04-12T10:25:13.347Z,27.54
2024-04-12T10:29:36.223Z,27.59
2024-04-12T10:34:03.968Z,27.66
2024-04-12T10:38:13.258Z,27.72
2024-04-12T10:42:27.426Z,27.80
2024-04-12T10:46:29.420Z,27.85
2024-04-12T10:50:31.475Z,27.93
2024-04-12T10:54:34.358Z,28.02
2024-04-12T10:58:36.188Z,28.17
2024-04-12T11:02:41.819Z,28.27
2024-04-12T11:06:46.315Z,28.32
2024-04-12T11:10:59.644Z,28.35
2024-04-12T11:15:20.235Z,28.42
2024-04-12T11:19:40.618Z,28.47
2024-04-12T11:24:01.171Z,28.59
2024-04-12T11:28:26.516Z,28.75
2024-04-12T11:32:28.881Z,28.85
2024-04-12T11:36:34.681Z,28.92
2024-04-12T11:40:39.716Z,29.03
2024-04-12T11:44:46.357Z,29.06
2024-04-12T11:48:48.332Z,29.04
2024-04-12T11:52:55.982Z,29.00
2024-04-12T11:57:03.242Z,29.00
2024-04-12T12:01:05.903Z,29.00
2024-04-12T12:05:07.777Z,29.00
2024-04-12T12:09:15.790Z,28.90
2024-04-12T12:13:18.211Z,28.78
2024-04-12T12:17:21.223Z,28.70
2024-04-12T12:21:24.602Z,28.66
2024-04-12T12:25:28.051Z,28.60
2024-04-12T12:29:30.011Z,28.57
2024-04-12T12:33:39.546Z,28.69
2024-04-12T12:37:41.711Z,28.68
2024-04-12T12:41:47.166Z,28.60
2024-04-12T12:45:49.149Z,28.57
2024-04-12T12:49:54.722Z,28.62
2024-04-12T12:53:57.751Z,28.63
2024-04-12T12:58:12.146Z,28.62
2024-04-12T13:02:16.395Z,28.57
2024-04-12T13:06:24.671Z,28.61
2024-04-12T13:10:26.527Z,28.63
2024-04-12T13:14:28.431Z,28.65
2024-04-12T13:18:30.450Z,28.58
2024-04-12T13:22:33.827Z,28.46
2024-04-12T13:26:35.775Z,28.34
2024-04-12T13:30:37.484Z,28.23
2024-04-12T13:34:39.779Z,28.18
2024-04-12T13:38:41.741Z,28.15
2024-04-12T13:42:43.647Z,28.14
2024-04-12T13:47:03.973Z,28.14
2024-04-12T13:51:06.088Z,28.16
2024-04-12T13:55:12.619Z,28.21
2024-04-12T13:59:14.547Z,28.18
2024-04-12T14:03:23.376Z,28.14
2024-04-12T14:07:25.595Z,28.07
2024-04-12T14:11:28.820Z,28.04
2024-04-12T14:15:31.214Z,28.05
2024-04-12T14:19:33.083Z,28.21
2024-04-12T14:23:35.095Z,28.26
2024-04-12T14:27:37.200Z,28.34
2024-04-12T14:31:39.874Z,28.42
2024-04-12T14:35:43.491Z,28.47
2024-04-12T14:39:47.810Z,28.47
2024-04-12T14:43:49.615Z,28.44
2024-04-12T14:47:58.789Z,28.42
2024-04-12T14:52:13.104Z,28.40
2024-04-12T14:56:18.516Z,28.38
2024-04-12T15:00:22.599Z,28.33
2024-04-12T15:04:42.823Z,28.25
2024-04-12T15:09:03.649Z,28.12
2024-04-12T15:13:24.405Z,27.91
2024-04-12T15:17:44.947Z,27.66
2024-04-12T15:22:05.342Z,27.39
2024-04-12T15:26:26.096Z,27.11
2024-04-12T15:30:46.324Z,26.92
2024-04-12T15:35:07.891Z,26.78
2024-04-12T15:39:29.159Z,26.63
2024-04-12T15:44:02.886Z,26.48
2024-04-12T15:48:13.299Z,26.33
2024-04-12T16:03:47.116Z,25.93
2024-04-12T16:08:08.767Z,25.84
2024-04-12T16:12:12.353Z,25.81
2024-04-12T16:16:23.311Z,25.85
2024-04-12T16:20:26.352Z,25.85
2024-04-12T16:24:28.295Z,25.80
2024-04-12T16:28:31.146Z,25.69
2024-04-12T16:32:37.229Z,25.55
2024-04-12T16:36:39.410Z,25.36
2024-04-12T16:40:42.681Z,25.18
2024-04-12T16:44:45.532Z,24.96
2024-04-12T16:48:48.528Z,24.78
2024-04-12T16:52:51.407Z,24.61
2024-04-12T16:57:07.934Z,24.39
2024-04-12T17:05:27.677Z,23.80
2024-04-12T17:09:43.023Z,23.48
2024-04-12T17:13:46.480Z,23.11
2024-04-12T17:17:49.057Z,22.81
2024-04-12T17:21:52.045Z,22.51
2024-04-12T17:25:54.365Z,22.21
2024-04-12T17:30:08.811Z,21.91
2024-04-12T17:34:11.590Z,21.60
2024-04-12T17:38:13.382Z,21.34
2024-04-12T17:42:15.122Z,21.08
2024-04-12T17:46:20.696Z,20.81
2024-04-12T17:50:25.205Z,20.55
2024-04-12T17:54:27.236Z,20.32
2024-04-12T17:58:31.396Z,20.11
2024-04-12T18:02:56.310Z,19.90
2024-04-12T18:07:00.978Z,19.70
2024-04-12T18:11:09.984Z,19.52
2024-04-12T18:15:11.846Z,19.35
2024-04-12T18:19:13.832Z,19.22
2024-04-12T18:23:15.586Z,19.11
2024-04-12T18:27:17.729Z,19.02
2024-04-12T18:31:19.936Z,18.93
2024-04-12T18:35:21.812Z,18.87
2024-04-12T18:39:42.178Z,18.81
2024-04-12T18:44:02.687Z,18.75
2024-04-12T18:48:04.969Z,18.70
2024-04-12T18:52:08.094Z,18.64
2024-04-12T18:56:14.685Z,18.60
2024-04-12T19:00:17.290Z,18.58
2024-04-12T19:04:19.731Z,18.56
2024-04-12T19:08:21.865Z,18.53
2024-04-12T19:12:24.301Z,18.51
2024-04-12T19:16:27.207Z,18.53
2024-04-12T19:20:32.034Z,18.47
2024-04-12T19:24:34.400Z,18.40
2024-04-12T19:28:36.471Z,18.35
2024-04-12T19:32:38.885Z,18.28
2024-04-12T19:36:44.399Z,18.24
2024-04-12T19:40:55.040Z,18.20
2024-04-12T19:45:00.451Z,18.14
2024-04-12T19:49:08.753Z,18.07
2024-04-12T19:53:13.933Z,17.97
2024-04-12T19:57:42.141Z,17.91
2024-04-12T20:01:43.904Z,17.84
2024-04-12T20:05:49.774Z,17.80
2024-04-12T20:09:51.901Z,17.76
2024-04-12T20:13:53.675Z,17.73
2024-04-12T20:17:56.628Z,17.71
2024-04-12T20:21:58.470Z,17.68
2024-04-12T20:26:14.970Z,17.67
2024-04-12T20:30:32.248Z,17.65
2024-04-12T20:34:56.611Z,17.63
2024-04-12T20:38:58.660Z,17.61
2024-04-12T20:43:00.379Z,17.59
2024-04-12T20:47:02.995Z,17.55
2024-04-12T20:51:05.350Z,17.53
2024-04-12T20:55:08.077Z,17.49
2024-04-12T20:59:12.366Z,17.47
2024-04-12T21:03:14.168Z,17.42
2024-04-12T21:07:16.143Z,17.37
2024-04-12T21:11:26.342Z,17.31
2024-04-12T21:15:30.429Z,17.27
2024-04-12T21:19:38.193Z,17.24
2024-04-12T21:23:40.286Z,17.21
2024-04-12T21:27:42.056Z,17.20
2024-04-12T21:31:44.481Z,17.21
2024-04-12T21:35:58.141Z,17.24
2024-04-12T21:40:00.170Z,17.23
2024-04-12T21:44:01.861Z,17.25
2024-04-12T21:48:04.242Z,17.26
2024-04-12T21:52:07.693Z,17.28
2024-04-12T21:56:35.024Z,17.31
2024-04-12T22:01:17.859Z,17.31
2024-04-12T22:05:19.885Z,17.27
2024-04-12T22:09:21.593Z,17.22
2024-04-12T22:13:24.320Z,17.17
2024-04-12T22:17:26.190Z,17.14
2024-04-12T22:21:28.116Z,17.06
2024-04-12T22:25:29.825Z,16.97
2024-04-12T22:29:31.867Z,16.92
2024-04-12T22:33:34.501Z,16.88
2024-04-12T22:37:36.482Z,16.89
2024-04-12T22:41:38.182Z,16.80
2024-04-12T22:45:40.947Z,16.74
2024-04-12T22:49:42.560Z,16.75
2024-04-12T22:53:46.776Z,16.72
2024-04-12T22:57:49.372Z,16.68
2024-04-12T23:01:52.640Z,16.63
2024-04-12T23:05:54.389Z,16.57
2024-04-12T23:09:56.358Z,16.50
2024-04-12T23:14:01.429Z,16.46
2024-04-12T23:18:03.538Z,16.41
2024-04-12T23:22:06.260Z,16.40
2024-04-12T23:26:20.094Z,16.39
2024-04-12T23:30:21.972Z,16.35
2024-04-12T23:34:24.169Z,16.30
2024-04-12T23:38:25.842Z,16.24
2024-04-12T23:42:27.898Z,16.16
2024-04-12T23:46:29.617Z,16.08
2024-04-12T23:50:31.644Z,15.98
2024-04-12T23:54:33.543Z,15.85
2024-04-12T23:58:36.828Z,15.76
